sensor_id;sensor_type;location;lat;lon;timestamp;P1;durP1;ratioP1;P2;durP2;ratioP2
5904;SDS011;2978;42.012;24.880;2023-05-10T00:00:36;7.50;;;5.10;;
5904;SDS011;2978;42.012;24.880;2023-05-10T00:03:02;8.93;;;4.80;;
5904;SDS011;2978;42.012;24.880;2023-05-10T00:05:30;10.37;;;4.33;;
5904;SDS011;2978;42.012;24.880;2023-05-10T00:07:55;8.00;;;5.30;;
5904;SDS011;2978;42.012;24.880;2023-05-10T00:10:21;13.20;;;4.80;;
5904;SDS011;2978;42.012;24.880;2023-05-10T00:12:46;9.43;;;4.90;;
5904;SDS011;2978;42.012;24.880;2023-05-10T00:15:12;10.20;;;5.73;;
5904;SDS011;2978;42.012;24.880;2023-05-10T00:17:37;11.57;;;5.83;;
5904;SDS011;2978;42.012;24.880;2023-05-10T00:20:03;6.63;;;4.70;;
5904;SDS011;2978;42.012;24.880;2023-05-10T00:22:30;7.97;;;4.67;;
5904;SDS011;2978;42.012;24.880;2023-05-10T00:24:55;7.60;;;4.67;;
5904;SDS011;2978;42.012;24.880;2023-05-10T00:27:21;7.23;;;4.67;;
5904;SDS011;2978;42.012;24.880;2023-05-10T00:29:46;5.93;;;4.93;;
5904;SDS011;2978;42.012;24.880;2023-05-10T00:32:11;6.43;;;4.60;;
5904;SDS011;2978;42.012;24.880;2023-05-10T00:34:38;7.70;;;5.17;;
5904;SDS011;2978;42.012;24.880;2023-05-10T00:37:04;20.37;;;5.80;;
5904;SDS011;2978;42.012;24.880;2023-05-10T00:39:30;6.83;;;4.60;;
5904;SDS011;2978;42.012;24.880;2023-05-10T00:41:56;7.47;;;4.83;;
5904;SDS011;2978;42.012;24.880;2023-05-10T00:44:21;14.57;;;5.00;;
5904;SDS011;2978;42.012;24.880;2023-05-10T00:46:47;9.13;;;4.70;;
5904;SDS011;2978;42.012;24.880;2023-05-10T00:49:13;5.10;;;4.60;;
5904;SDS011;2978;42.012;24.880;2023-05-10T00:51:39;8.10;;;5.10;;
5904;SDS011;2978;42.012;24.880;2023-05-10T00:54:04;8.20;;;5.37;;
5904;SDS011;2978;42.012;24.880;2023-05-10T00:56:30;12.50;;;5.30;;
5904;SDS011;2978;42.012;24.880;2023-05-10T00:58:55;10.27;;;5.00;;
5904;SDS011;2978;42.012;24.880;2023-05-10T01:01:21;7.30;;;5.40;;
5904;SDS011;2978;42.012;24.880;2023-05-10T01:03:47;14.27;;;5.67;;
5904;SDS011;2978;42.012;24.880;2023-05-10T01:06:13;8.10;;;5.70;;
5904;SDS011;2978;42.012;24.880;2023-05-10T01:08:38;7.50;;;5.47;;
5904;SDS011;2978;42.012;24.880;2023-05-10T01:11:04;7.10;;;5.00;;
5904;SDS011;2978;42.012;24.880;2023-05-10T01:13:33;13.63;;;5.50;;
5904;SDS011;2978;42.012;24.880;2023-05-10T01:16:02;9.60;;;5.37;;
5904;SDS011;2978;42.012;24.880;2023-05-10T01:18:29;9.97;;;5.90;;
5904;SDS011;2978;42.012;24.880;2023-05-10T01:21:04;15.27;;;6.00;;
5904;SDS011;2978;42.012;24.880;2023-05-10T01:24:09;9.47;;;5.60;;
5904;SDS011;2978;42.012;24.880;2023-05-10T01:35:16;13.67;;;5.73;;
5904;SDS011;2978;42.012;24.880;2023-05-10T01:40:33;7.80;;;6.17;;
5904;SDS011;2978;42.012;24.880;2023-05-10T01:43:03;11.63;;;7.00;;
5904;SDS011;2978;42.012;24.880;2023-05-10T01:45:41;21.57;;;7.40;;
5904;SDS011;2978;42.012;24.880;2023-05-10T01:48:14;10.20;;;6.20;;
5904;SDS011;2978;42.012;24.880;2023-05-10T01:50:41;11.90;;;6.70;;
5904;SDS011;2978;42.012;24.880;2023-05-10T01:53:09;12.30;;;6.43;;
5904;SDS011;2978;42.012;24.880;2023-05-10T01:55:39;8.47;;;6.60;;
5904;SDS011;2978;42.012;24.880;2023-05-10T01:58:13;7.17;;;5.30;;
5904;SDS011;2978;42.012;24.880;2023-05-10T02:00:41;10.13;;;5.93;;
5904;SDS011;2978;42.012;24.880;2023-05-10T02:03:09;8.40;;;5.77;;
5904;SDS011;2978;42.012;24.880;2023-05-10T02:05:36;11.93;;;6.30;;
5904;SDS011;2978;42.012;24.880;2023-05-10T02:08:05;22.77;;;6.60;;
5904;SDS011;2978;42.012;24.880;2023-05-10T02:10:32;9.40;;;6.23;;
5904;SDS011;2978;42.012;24.880;2023-05-10T02:12:59;8.80;;;6.83;;
5904;SDS011;2978;42.012;24.880;2023-05-10T02:15:26;9.03;;;6.67;;
5904;SDS011;2978;42.012;24.880;2023-05-10T02:17:54;10.40;;;7.60;;
5904;SDS011;2978;42.012;24.880;2023-05-10T02:20:22;15.23;;;7.00;;
5904;SDS011;2978;42.012;24.880;2023-05-10T02:22:50;14.80;;;7.07;;
5904;SDS011;2978;42.012;24.880;2023-05-10T02:25:18;9.47;;;7.03;;
5904;SDS011;2978;42.012;24.880;2023-05-10T02:27:45;10.77;;;7.10;;
5904;SDS011;2978;42.012;24.880;2023-05-10T02:30:12;12.10;;;7.97;;
5904;SDS011;2978;42.012;24.880;2023-05-10T02:32:38;13.10;;;8.23;;
5904;SDS011;2978;42.012;24.880;2023-05-10T02:35:05;9.93;;;8.70;;
5904;SDS011;2978;42.012;24.880;2023-05-10T02:37:32;17.00;;;8.70;;
5904;SDS011;2978;42.012;24.880;2023-05-10T02:39:59;9.50;;;8.50;;
5904;SDS011;2978;42.012;24.880;2023-05-10T02:42:27;21.40;;;8.77;;
5904;SDS011;2978;42.012;24.880;2023-05-10T02:44:55;13.50;;;9.50;;
5904;SDS011;2978;42.012;24.880;2023-05-10T02:47:30;26.70;;;9.90;;
5904;SDS011;2978;42.012;24.880;2023-05-10T02:49:56;13.23;;;8.93;;
5904;SDS011;2978;42.012;24.880;2023-05-10T02:52:23;10.33;;;8.57;;
5904;SDS011;2978;42.012;24.880;2023-05-10T02:54:54;13.63;;;9.40;;
5904;SDS011;2978;42.012;24.880;2023-05-10T02:57:27;13.77;;;8.70;;
5904;SDS011;2978;42.012;24.880;2023-05-10T02:59:56;13.03;;;9.60;;
5904;SDS011;2978;42.012;24.880;2023-05-10T03:02:22;10.93;;;8.73;;
5904;SDS011;2978;42.012;24.880;2023-05-10T03:04:48;11.00;;;9.67;;
5904;SDS011;2978;42.012;24.880;2023-05-10T03:07:13;18.13;;;9.50;;
5904;SDS011;2978;42.012;24.880;2023-05-10T03:09:39;13.93;;;9.40;;
5904;SDS011;2978;42.012;24.880;2023-05-10T03:15:03;12.30;;;9.90;;
5904;SDS011;2978;42.012;24.880;2023-05-10T03:17:40;11.33;;;10.00;;
5904;SDS011;2978;42.012;24.880;2023-05-10T03:20:21;13.80;;;9.47;;
5904;SDS011;2978;42.012;24.880;2023-05-10T03:22:55;16.00;;;9.73;;
5904;SDS011;2978;42.012;24.880;2023-05-10T03:25:25;16.73;;;10.13;;
5904;SDS011;2978;42.012;24.880;2023-05-10T03:27:51;25.77;;;11.23;;
5904;SDS011;2978;42.012;24.880;2023-05-10T03:30:17;17.90;;;10.90;;
5904;SDS011;2978;42.012;24.880;2023-05-10T03:32:44;15.67;;;10.17;;
5904;SDS011;2978;42.012;24.880;2023-05-10T03:35:10;15.47;;;9.73;;
5904;SDS011;2978;42.012;24.880;2023-05-10T03:37:38;15.23;;;10.23;;
5904;SDS011;2978;42.012;24.880;2023-05-10T03:40:04;16.70;;;14.13;;
5904;SDS011;2978;42.012;24.880;2023-05-10T03:42:30;29.27;;;24.57;;
5904;SDS011;2978;42.012;24.880;2023-05-10T03:44:55;35.17;;;26.63;;
5904;SDS011;2978;42.012;24.880;2023-05-10T03:47:20;22.60;;;18.10;;
5904;SDS011;2978;42.012;24.880;2023-05-10T03:49:46;25.77;;;19.13;;
5904;SDS011;2978;42.012;24.880;2023-05-10T03:52:11;17.83;;;12.63;;
5904;SDS011;2978;42.012;24.880;2023-05-10T03:54:37;23.63;;;12.67;;
5904;SDS011;2978;42.012;24.880;2023-05-10T03:57:03;17.90;;;12.80;;
5904;SDS011;2978;42.012;24.880;2023-05-10T03:59:28;19.20;;;11.57;;
5904;SDS011;2978;42.012;24.880;2023-05-10T04:01:54;15.60;;;10.67;;
5904;SDS011;2978;42.012;24.880;2023-05-10T04:04:20;14.40;;;10.87;;
5904;SDS011;2978;42.012;24.880;2023-05-10T04:06:46;14.60;;;10.47;;
5904;SDS011;2978;42.012;24.880;2023-05-10T04:09:12;18.90;;;11.50;;
5904;SDS011;2978;42.012;24.880;2023-05-10T04:11:37;12.03;;;10.13;;
5904;SDS011;2978;42.012;24.880;2023-05-10T04:14:03;16.77;;;11.10;;
5904;SDS011;2978;42.012;24.880;2023-05-10T04:16:28;19.33;;;11.00;;
5904;SDS011;2978;42.012;24.880;2023-05-10T04:18:54;21.93;;;11.93;;
5904;SDS011;2978;42.012;24.880;2023-05-10T04:21:19;22.80;;;12.03;;
5904;SDS011;2978;42.012;24.880;2023-05-10T04:23:45;17.23;;;11.10;;
5904;SDS011;2978;42.012;24.880;2023-05-10T04:26:10;22.10;;;10.33;;
5904;SDS011;2978;42.012;24.880;2023-05-10T04:28:36;19.53;;;9.70;;
5904;SDS011;2978;42.012;24.880;2023-05-10T04:31:02;11.77;;;9.53;;
5904;SDS011;2978;42.012;24.880;2023-05-10T04:33:32;20.77;;;11.37;;
5904;SDS011;2978;42.012;24.880;2023-05-10T04:35:59;16.60;;;11.43;;
5904;SDS011;2978;42.012;24.880;2023-05-10T04:38:24;22.33;;;10.97;;
5904;SDS011;2978;42.012;24.880;2023-05-10T04:40:50;17.80;;;11.20;;
5904;SDS011;2978;42.012;24.880;2023-05-10T04:43:16;15.10;;;10.10;;
5904;SDS011;2978;42.012;24.880;2023-05-10T04:45:41;22.47;;;10.60;;
5904;SDS011;2978;42.012;24.880;2023-05-10T04:48:07;9.83;;;8.50;;
5904;SDS011;2978;42.012;24.880;2023-05-10T04:50:32;13.43;;;9.17;;
5904;SDS011;2978;42.012;24.880;2023-05-10T04:52:58;19.63;;;9.57;;
5904;SDS011;2978;42.012;24.880;2023-05-10T04:55:23;12.20;;;10.13;;
5904;SDS011;2978;42.012;24.880;2023-05-10T04:57:49;13.37;;;9.20;;
5904;SDS011;2978;42.012;24.880;2023-05-10T05:00:14;11.30;;;8.20;;
5904;SDS011;2978;42.012;24.880;2023-05-10T05:02:43;12.13;;;9.37;;
5904;SDS011;2978;42.012;24.880;2023-05-10T05:05:12;14.63;;;7.93;;
5904;SDS011;2978;42.012;24.880;2023-05-10T05:07:38;15.50;;;10.03;;
5904;SDS011;2978;42.012;24.880;2023-05-10T05:10:07;19.10;;;9.10;;
5904;SDS011;2978;42.012;24.880;2023-05-10T05:12:33;15.07;;;7.53;;
5904;SDS011;2978;42.012;24.880;2023-05-10T05:14:59;13.20;;;8.93;;
5904;SDS011;2978;42.012;24.880;2023-05-10T05:17:25;13.57;;;9.27;;
5904;SDS011;2978;42.012;24.880;2023-05-10T05:19:51;16.70;;;9.07;;
5904;SDS011;2978;42.012;24.880;2023-05-10T05:22:16;12.70;;;9.10;;
5904;SDS011;2978;42.012;24.880;2023-05-10T05:24:42;24.43;;;8.80;;
5904;SDS011;2978;42.012;24.880;2023-05-10T05:27:07;11.07;;;8.23;;
5904;SDS011;2978;42.012;24.880;2023-05-10T05:29:33;13.37;;;7.87;;
5904;SDS011;2978;42.012;24.880;2023-05-10T05:31:58;15.83;;;8.60;;
5904;SDS011;2978;42.012;24.880;2023-05-10T05:34:24;15.30;;;12.23;;
5904;SDS011;2978;42.012;24.880;2023-05-10T05:36:50;14.20;;;9.50;;
5904;SDS011;2978;42.012;24.880;2023-05-10T05:39:15;19.20;;;9.17;;
5904;SDS011;2978;42.012;24.880;2023-05-10T05:41:41;11.97;;;9.10;;
5904;SDS011;2978;42.012;24.880;2023-05-10T05:44:07;14.50;;;9.07;;
5904;SDS011;2978;42.012;24.880;2023-05-10T05:46:32;14.97;;;9.60;;
5904;SDS011;2978;42.012;24.880;2023-05-10T05:48:58;11.37;;;8.93;;
5904;SDS011;2978;42.012;24.880;2023-05-10T05:51:23;10.13;;;9.00;;
5904;SDS011;2978;42.012;24.880;2023-05-10T05:53:49;15.33;;;9.10;;
5904;SDS011;2978;42.012;24.880;2023-05-10T06:02:58;19.43;;;8.80;;
5904;SDS011;2978;42.012;24.880;2023-05-10T06:05:23;10.17;;;7.00;;
5904;SDS011;2978;42.012;24.880;2023-05-10T06:07:49;16.70;;;8.10;;
5904;SDS011;2978;42.012;24.880;2023-05-10T06:10:14;13.20;;;8.13;;
5904;SDS011;2978;42.012;24.880;2023-05-10T06:12:39;11.80;;;6.87;;
5904;SDS011;2978;42.012;24.880;2023-05-10T06:15:05;9.60;;;6.47;;
5904;SDS011;2978;42.012;24.880;2023-05-10T06:17:31;12.23;;;5.67;;
5904;SDS011;2978;42.012;24.880;2023-05-10T06:19:57;7.43;;;5.67;;
5904;SDS011;2978;42.012;24.880;2023-05-10T06:22:22;16.30;;;8.03;;
5904;SDS011;2978;42.012;24.880;2023-05-10T06:24:48;13.83;;;7.50;;
5904;SDS011;2978;42.012;24.880;2023-05-10T06:27:14;13.73;;;6.10;;
5904;SDS011;2978;42.012;24.880;2023-05-10T06:29:39;8.07;;;6.23;;
5904;SDS011;2978;42.012;24.880;2023-05-10T06:32:05;13.20;;;7.20;;
5904;SDS011;2978;42.012;24.880;2023-05-10T06:34:30;10.87;;;7.40;;
5904;SDS011;2978;42.012;24.880;2023-05-10T06:36:56;12.93;;;7.37;;
5904;SDS011;2978;42.012;24.880;2023-05-10T06:39:22;13.17;;;8.03;;
5904;SDS011;2978;42.012;24.880;2023-05-10T06:41:47;13.50;;;8.60;;
5904;SDS011;2978;42.012;24.880;2023-05-10T06:44:13;19.53;;;8.60;;
5904;SDS011;2978;42.012;24.880;2023-05-10T06:46:38;10.60;;;7.73;;
5904;SDS011;2978;42.012;24.880;2023-05-10T06:49:03;11.30;;;6.00;;
5904;SDS011;2978;42.012;24.880;2023-05-10T06:51:29;13.57;;;6.60;;
5904;SDS011;2978;42.012;24.880;2023-05-10T06:53:55;7.70;;;6.33;;
5904;SDS011;2978;42.012;24.880;2023-05-10T06:56:21;15.33;;;7.03;;
5904;SDS011;2978;42.012;24.880;2023-05-10T06:58:47;14.87;;;6.77;;
5904;SDS011;2978;42.012;24.880;2023-05-10T07:01:33;12.80;;;7.20;;
5904;SDS011;2978;42.012;24.880;2023-05-10T07:03:59;18.07;;;6.37;;
5904;SDS011;2978;42.012;24.880;2023-05-10T07:06:24;8.00;;;6.17;;
5904;SDS011;2978;42.012;24.880;2023-05-10T07:08:49;13.80;;;7.40;;
5904;SDS011;2978;42.012;24.880;2023-05-10T07:11:15;16.70;;;7.70;;
5904;SDS011;2978;42.012;24.880;2023-05-10T07:13:41;6.90;;;6.00;;
5904;SDS011;2978;42.012;24.880;2023-05-10T07:16:09;10.50;;;6.70;;
5904;SDS011;2978;42.012;24.880;2023-05-10T07:18:35;10.80;;;7.17;;
5904;SDS011;2978;42.012;24.880;2023-05-10T07:21:00;12.70;;;6.87;;
5904;SDS011;2978;42.012;24.880;2023-05-10T07:26:31;14.90;;;7.67;;
5904;SDS011;2978;42.012;24.880;2023-05-10T07:28:57;13.57;;;7.80;;
5904;SDS011;2978;42.012;24.880;2023-05-10T07:31:22;10.20;;;6.13;;
5904;SDS011;2978;42.012;24.880;2023-05-10T07:33:48;13.90;;;8.70;;
5904;SDS011;2978;42.012;24.880;2023-05-10T07:36:14;15.50;;;7.30;;
5904;SDS011;2978;42.012;24.880;2023-05-10T07:38:39;9.20;;;7.17;;
5904;SDS011;2978;42.012;24.880;2023-05-10T07:41:05;12.63;;;7.70;;
5904;SDS011;2978;42.012;24.880;2023-05-10T07:43:30;12.30;;;8.13;;
5904;SDS011;2978;42.012;24.880;2023-05-10T07:45:56;10.90;;;6.13;;
5904;SDS011;2978;42.012;24.880;2023-05-10T07:48:22;5.57;;;4.57;;
5904;SDS011;2978;42.012;24.880;2023-05-10T07:50:48;13.63;;;7.43;;
5904;SDS011;2978;42.012;24.880;2023-05-10T07:53:13;7.20;;;6.10;;
5904;SDS011;2978;42.012;24.880;2023-05-10T07:55:38;8.70;;;4.90;;
5904;SDS011;2978;42.012;24.880;2023-05-10T07:58:04;10.60;;;6.17;;
5904;SDS011;2978;42.012;24.880;2023-05-10T08:00:30;11.77;;;4.83;;
5904;SDS011;2978;42.012;24.880;2023-05-10T08:02:55;9.77;;;5.73;;
5904;SDS011;2978;42.012;24.880;2023-05-10T08:05:21;10.47;;;5.53;;
5904;SDS011;2978;42.012;24.880;2023-05-10T08:07:46;10.10;;;6.03;;
5904;SDS011;2978;42.012;24.880;2023-05-10T08:10:11;10.63;;;5.90;;
5904;SDS011;2978;42.012;24.880;2023-05-10T08:12:37;6.40;;;4.73;;
5904;SDS011;2978;42.012;24.880;2023-05-10T08:15:03;9.73;;;6.43;;
5904;SDS011;2978;42.012;24.880;2023-05-10T08:17:29;15.43;;;6.67;;
5904;SDS011;2978;42.012;24.880;2023-05-10T08:19:55;6.90;;;4.50;;
5904;SDS011;2978;42.012;24.880;2023-05-10T08:22:20;10.07;;;4.23;;
5904;SDS011;2978;42.012;24.880;2023-05-10T08:24:46;8.67;;;4.90;;
5904;SDS011;2978;42.012;24.880;2023-05-10T08:27:11;11.20;;;5.13;;
5904;SDS011;2978;42.012;24.880;2023-05-10T08:29:37;8.53;;;5.27;;
5904;SDS011;2978;42.012;24.880;2023-05-10T08:32:03;6.77;;;4.53;;
5904;SDS011;2978;42.012;24.880;2023-05-10T08:34:28;6.80;;;4.97;;
5904;SDS011;2978;42.012;24.880;2023-05-10T08:36:56;10.63;;;5.13;;
5904;SDS011;2978;42.012;24.880;2023-05-10T08:39:21;11.73;;;5.00;;
5904;SDS011;2978;42.012;24.880;2023-05-10T08:41:48;11.77;;;5.63;;
5904;SDS011;2978;42.012;24.880;2023-05-10T08:44:17;8.40;;;5.57;;
5904;SDS011;2978;42.012;24.880;2023-05-10T08:46:46;7.23;;;4.80;;
5904;SDS011;2978;42.012;24.880;2023-05-10T08:49:21;14.83;;;6.30;;
5904;SDS011;2978;42.012;24.880;2023-05-10T08:51:49;8.10;;;4.77;;
5904;SDS011;2978;42.012;24.880;2023-05-10T08:54:17;7.00;;;5.93;;
5904;SDS011;2978;42.012;24.880;2023-05-10T08:56:42;7.63;;;5.70;;
5904;SDS011;2978;42.012;24.880;2023-05-10T08:59:08;21.97;;;5.97;;
5904;SDS011;2978;42.012;24.880;2023-05-10T09:01:33;5.00;;;4.50;;
5904;SDS011;2978;42.012;24.880;2023-05-10T10:41:28;4.37;;;3.80;;
5904;SDS011;2978;42.012;24.880;2023-05-10T10:52:43;5.03;;;4.53;;
5904;SDS011;2978;42.012;24.880;2023-05-10T10:57:47;7.00;;;4.87;;
5904;SDS011;2978;42.012;24.880;2023-05-10T11:00:32;5.43;;;4.90;;
5904;SDS011;2978;42.012;24.880;2023-05-10T11:05:45;6.43;;;4.20;;
5904;SDS011;2978;42.012;24.880;2023-05-10T11:10:49;5.70;;;5.10;;
5904;SDS011;2978;42.012;24.880;2023-05-10T11:16:23;12.00;;;7.13;;
5904;SDS011;2978;42.012;24.880;2023-05-10T11:19:00;6.80;;;5.20;;
5904;SDS011;2978;42.012;24.880;2023-05-10T11:21:31;15.33;;;6.07;;
5904;SDS011;2978;42.012;24.880;2023-05-10T11:23:58;8.17;;;4.90;;
5904;SDS011;2978;42.012;24.880;2023-05-10T11:26:25;7.97;;;5.30;;
5904;SDS011;2978;42.012;24.880;2023-05-10T11:28:55;6.70;;;4.80;;
5904;SDS011;2978;42.012;24.880;2023-05-10T11:31:20;8.43;;;6.47;;
5904;SDS011;2978;42.012;24.880;2023-05-10T11:33:51;5.70;;;5.20;;
5904;SDS011;2978;42.012;24.880;2023-05-10T11:36:25;5.63;;;5.10;;
5904;SDS011;2978;42.012;24.880;2023-05-10T11:38:52;9.47;;;5.17;;
5904;SDS011;2978;42.012;24.880;2023-05-10T11:41:19;12.10;;;7.10;;
5904;SDS011;2978;42.012;24.880;2023-05-10T11:43:49;8.53;;;6.43;;
5904;SDS011;2978;42.012;24.880;2023-05-10T11:46:16;7.03;;;5.33;;
5904;SDS011;2978;42.012;24.880;2023-05-10T11:48:45;8.20;;;6.20;;
5904;SDS011;2978;42.012;24.880;2023-05-10T11:51:12;6.00;;;4.97;;
5904;SDS011;2978;42.012;24.880;2023-05-10T11:53:37;9.50;;;6.07;;
5904;SDS011;2978;42.012;24.880;2023-05-10T11:56:09;7.10;;;5.27;;
5904;SDS011;2978;42.012;24.880;2023-05-10T11:58:36;9.30;;;5.33;;
5904;SDS011;2978;42.012;24.880;2023-05-10T12:01:04;9.10;;;5.20;;
5904;SDS011;2978;42.012;24.880;2023-05-10T12:03:30;8.70;;;6.90;;
5904;SDS011;2978;42.012;24.880;2023-05-10T12:05:57;6.63;;;5.67;;
5904;SDS011;2978;42.012;24.880;2023-05-10T12:08:25;10.33;;;5.70;;
5904;SDS011;2978;42.012;24.880;2023-05-10T12:10:51;5.70;;;5.07;;
5904;SDS011;2978;42.012;24.880;2023-05-10T12:13:28;6.73;;;5.87;;
5904;SDS011;2978;42.012;24.880;2023-05-10T12:15:54;6.40;;;5.53;;
5904;SDS011;2978;42.012;24.880;2023-05-10T12:18:23;10.23;;;7.17;;
5904;SDS011;2978;42.012;24.880;2023-05-10T12:20:51;12.63;;;7.27;;
5904;SDS011;2978;42.012;24.880;2023-05-10T12:23:18;8.20;;;5.83;;
5904;SDS011;2978;42.012;24.880;2023-05-10T12:25:45;8.83;;;6.00;;
5904;SDS011;2978;42.012;24.880;2023-05-10T12:28:11;13.60;;;7.00;;
5904;SDS011;2978;42.012;24.880;2023-05-10T12:30:36;13.57;;;7.87;;
5904;SDS011;2978;42.012;24.880;2023-05-10T12:35:33;12.07;;;7.23;;
5904;SDS011;2978;42.012;24.880;2023-05-10T12:41:01;8.70;;;6.53;;
5904;SDS011;2978;42.012;24.880;2023-05-10T12:43:28;6.80;;;5.50;;
5904;SDS011;2978;42.012;24.880;2023-05-10T12:45:54;6.03;;;5.10;;
5904;SDS011;2978;42.012;24.880;2023-05-10T12:48:20;6.10;;;4.83;;
5904;SDS011;2978;42.012;24.880;2023-05-10T12:50:47;9.73;;;6.20;;
5904;SDS011;2978;42.012;24.880;2023-05-10T12:53:13;11.30;;;5.33;;
5904;SDS011;2978;42.012;24.880;2023-05-10T12:55:43;7.47;;;5.87;;
5904;SDS011;2978;42.012;24.880;2023-05-10T12:58:08;11.13;;;5.70;;
5904;SDS011;2978;42.012;24.880;2023-05-10T13:00:34;6.97;;;4.70;;
5904;SDS011;2978;42.012;24.880;2023-05-10T13:02:59;13.47;;;6.83;;
5904;SDS011;2978;42.012;24.880;2023-05-10T13:05:25;8.47;;;4.80;;
5904;SDS011;2978;42.012;24.880;2023-05-10T13:07:50;8.80;;;5.87;;
5904;SDS011;2978;42.012;24.880;2023-05-10T13:10:16;9.37;;;5.43;;
5904;SDS011;2978;42.012;24.880;2023-05-10T13:12:41;7.07;;;4.90;;
5904;SDS011;2978;42.012;24.880;2023-05-10T13:15:07;7.17;;;5.00;;
5904;SDS011;2978;42.012;24.880;2023-05-10T13:17:33;7.00;;;4.43;;
5904;SDS011;2978;42.012;24.880;2023-05-10T13:19:58;7.93;;;4.60;;
5904;SDS011;2978;42.012;24.880;2023-05-10T13:22:23;13.60;;;4.93;;
5904;SDS011;2978;42.012;24.880;2023-05-10T13:24:49;7.87;;;5.13;;
5904;SDS011;2978;42.012;24.880;2023-05-10T13:27:15;6.33;;;4.63;;
5904;SDS011;2978;42.012;24.880;2023-05-10T13:29:40;8.33;;;4.50;;
5904;SDS011;2978;42.012;24.880;2023-05-10T13:32:05;8.03;;;5.53;;
5904;SDS011;2978;42.012;24.880;2023-05-10T13:34:31;8.03;;;5.20;;
5904;SDS011;2978;42.012;24.880;2023-05-10T13:36:56;12.50;;;6.20;;
5904;SDS011;2978;42.012;24.880;2023-05-10T13:39:22;5.43;;;4.23;;
5904;SDS011;2978;42.012;24.880;2023-05-10T13:41:48;9.20;;;5.13;;
5904;SDS011;2978;42.012;24.880;2023-05-10T13:44:13;6.80;;;5.33;;
5904;SDS011;2978;42.012;24.880;2023-05-10T13:46:40;13.37;;;6.70;;
5904;SDS011;2978;42.012;24.880;2023-05-10T13:49:07;9.00;;;6.57;;
5904;SDS011;2978;42.012;24.880;2023-05-10T13:51:34;8.93;;;6.20;;
5904;SDS011;2978;42.012;24.880;2023-05-10T13:54:00;7.10;;;6.37;;
5904;SDS011;2978;42.012;24.880;2023-05-10T13:56:38;6.23;;;5.63;;
5904;SDS011;2978;42.012;24.880;2023-05-10T13:59:05;6.27;;;5.40;;
5904;SDS011;2978;42.012;24.880;2023-05-10T14:01:31;7.97;;;5.27;;
5904;SDS011;2978;42.012;24.880;2023-05-10T14:03:56;5.90;;;4.70;;
5904;SDS011;2978;42.012;24.880;2023-05-10T14:06:22;7.70;;;5.00;;
5904;SDS011;2978;42.012;24.880;2023-05-10T14:08:47;6.50;;;4.83;;
5904;SDS011;2978;42.012;24.880;2023-05-10T14:11:13;10.33;;;5.60;;
5904;SDS011;2978;42.012;24.880;2023-05-10T14:13:38;10.03;;;4.97;;
5904;SDS011;2978;42.012;24.880;2023-05-10T14:16:04;9.30;;;5.50;;
5904;SDS011;2978;42.012;24.880;2023-05-10T14:18:30;6.30;;;5.40;;
5904;SDS011;2978;42.012;24.880;2023-05-10T14:20:55;8.33;;;5.70;;
5904;SDS011;2978;42.012;24.880;2023-05-10T14:23:21;9.93;;;5.30;;
5904;SDS011;2978;42.012;24.880;2023-05-10T14:25:51;7.60;;;5.47;;
5904;SDS011;2978;42.012;24.880;2023-05-10T14:28:17;8.03;;;5.83;;
5904;SDS011;2978;42.012;24.880;2023-05-10T14:30:43;8.73;;;5.20;;
5904;SDS011;2978;42.012;24.880;2023-05-10T14:33:09;6.40;;;5.17;;
5904;SDS011;2978;42.012;24.880;2023-05-10T14:35:34;8.77;;;5.63;;
5904;SDS011;2978;42.012;24.880;2023-05-10T14:38:01;17.27;;;5.43;;
5904;SDS011;2978;42.012;24.880;2023-05-10T14:40:28;8.73;;;5.80;;
5904;SDS011;2978;42.012;24.880;2023-05-10T14:42:53;7.23;;;5.30;;
5904;SDS011;2978;42.012;24.880;2023-05-10T14:45:19;10.33;;;5.07;;
5904;SDS011;2978;42.012;24.880;2023-05-10T14:47:45;9.50;;;5.60;;
5904;SDS011;2978;42.012;24.880;2023-05-10T14:50:11;9.70;;;5.00;;
5904;SDS011;2978;42.012;24.880;2023-05-10T14:55:58;8.30;;;4.70;;
5904;SDS011;2978;42.012;24.880;2023-05-10T14:58:26;11.70;;;7.13;;
5904;SDS011;2978;42.012;24.880;2023-05-10T15:00:51;7.20;;;5.13;;
5904;SDS011;2978;42.012;24.880;2023-05-10T15:03:17;9.93;;;5.87;;
5904;SDS011;2978;42.012;24.880;2023-05-10T15:05:42;5.53;;;4.50;;
5904;SDS011;2978;42.012;24.880;2023-05-10T15:08:08;10.23;;;5.70;;
5904;SDS011;2978;42.012;24.880;2023-05-10T15:10:34;11.70;;;5.00;;
5904;SDS011;2978;42.012;24.880;2023-05-10T15:13:00;5.07;;;4.40;;
5904;SDS011;2978;42.012;24.880;2023-05-10T15:15:25;4.63;;;4.23;;
5904;SDS011;2978;42.012;24.880;2023-05-10T15:17:51;7.83;;;5.10;;
5904;SDS011;2978;42.012;24.880;2023-05-10T15:20:16;4.40;;;4.00;;
5904;SDS011;2978;42.012;24.880;2023-05-10T15:22:42;7.73;;;4.33;;
5904;SDS011;2978;42.012;24.880;2023-05-10T15:25:07;4.93;;;4.10;;
5904;SDS011;2978;42.012;24.880;2023-05-10T15:27:33;5.50;;;4.43;;
5904;SDS011;2978;42.012;24.880;2023-05-10T15:29:59;9.37;;;4.73;;
5904;SDS011;2978;42.012;24.880;2023-05-10T15:32:25;9.43;;;5.10;;
5904;SDS011;2978;42.012;24.880;2023-05-10T15:34:50;6.53;;;5.20;;
5904;SDS011;2978;42.012;24.880;2023-05-10T15:37:16;11.90;;;5.10;;
5904;SDS011;2978;42.012;24.880;2023-05-10T15:39:41;7.17;;;4.60;;
5904;SDS011;2978;42.012;24.880;2023-05-10T15:42:07;7.53;;;4.37;;
5904;SDS011;2978;42.012;24.880;2023-05-10T15:44:32;10.83;;;6.40;;
5904;SDS011;2978;42.012;24.880;2023-05-10T15:47:00;10.50;;;6.67;;
5904;SDS011;2978;42.012;24.880;2023-05-10T15:49:27;11.27;;;6.33;;
5904;SDS011;2978;42.012;24.880;2023-05-10T15:51:52;8.40;;;5.40;;
5904;SDS011;2978;42.012;24.880;2023-05-10T15:54:18;9.53;;;4.73;;
5904;SDS011;2978;42.012;24.880;2023-05-10T15:56:43;6.80;;;3.97;;
5904;SDS011;2978;42.012;24.880;2023-05-10T15:59:08;19.03;;;6.50;;
5904;SDS011;2978;42.012;24.880;2023-05-10T16:01:35;12.00;;;5.27;;
5904;SDS011;2978;42.012;24.880;2023-05-10T16:04:01;6.10;;;4.90;;
5904;SDS011;2978;42.012;24.880;2023-05-10T16:06:27;20.83;;;6.27;;
5904;SDS011;2978;42.012;24.880;2023-05-10T16:08:53;9.63;;;5.57;;
5904;SDS011;2978;42.012;24.880;2023-05-10T16:11:18;4.57;;;3.90;;
5904;SDS011;2978;42.012;24.880;2023-05-10T16:13:45;8.47;;;5.33;;
5904;SDS011;2978;42.012;24.880;2023-05-10T16:16:10;5.80;;;4.00;;
5904;SDS011;2978;42.012;24.880;2023-05-10T16:18:36;6.97;;;4.50;;
5904;SDS011;2978;42.012;24.880;2023-05-10T16:21:02;12.73;;;4.50;;
5904;SDS011;2978;42.012;24.880;2023-05-10T16:23:27;6.57;;;5.27;;
5904;SDS011;2978;42.012;24.880;2023-05-10T16:25:53;10.83;;;5.47;;
5904;SDS011;2978;42.012;24.880;2023-05-10T16:28:19;14.40;;;8.77;;
5904;SDS011;2978;42.012;24.880;2023-05-10T16:30:46;12.40;;;6.93;;
5904;SDS011;2978;42.012;24.880;2023-05-10T16:33:11;5.90;;;5.30;;
5904;SDS011;2978;42.012;24.880;2023-05-10T16:35:38;9.30;;;7.37;;
5904;SDS011;2978;42.012;24.880;2023-05-10T16:38:04;11.50;;;6.83;;
5904;SDS011;2978;42.012;24.880;2023-05-10T16:40:31;17.00;;;9.73;;
5904;SDS011;2978;42.012;24.880;2023-05-10T16:42:57;8.07;;;5.30;;
5904;SDS011;2978;42.012;24.880;2023-05-10T16:45:22;12.90;;;6.50;;
5904;SDS011;2978;42.012;24.880;2023-05-10T16:47:48;19.10;;;9.60;;
5904;SDS011;2978;42.012;24.880;2023-05-10T16:50:13;26.87;;;10.17;;
5904;SDS011;2978;42.012;24.880;2023-05-10T16:52:39;12.70;;;7.27;;
5904;SDS011;2978;42.012;24.880;2023-05-10T16:55:05;14.97;;;7.37;;
5904;SDS011;2978;42.012;24.880;2023-05-10T16:57:31;9.57;;;7.10;;
5904;SDS011;2978;42.012;24.880;2023-05-10T16:59:57;16.37;;;10.77;;
5904;SDS011;2978;42.012;24.880;2023-05-10T17:02:23;18.23;;;11.10;;
5904;SDS011;2978;42.012;24.880;2023-05-10T17:04:49;18.50;;;11.90;;
5904;SDS011;2978;42.012;24.880;2023-05-10T17:07:14;36.83;;;14.80;;
5904;SDS011;2978;42.012;24.880;2023-05-10T17:09:43;16.13;;;9.33;;
5904;SDS011;2978;42.012;24.880;2023-05-10T17:12:08;33.47;;;13.77;;
5904;SDS011;2978;42.012;24.880;2023-05-10T17:14:34;21.40;;;12.87;;
5904;SDS011;2978;42.012;24.880;2023-05-10T17:17:01;17.10;;;10.50;;
5904;SDS011;2978;42.012;24.880;2023-05-10T17:19:27;15.33;;;9.57;;